sensor_id;sensor_type;location;lat;lon;timestamp;P1;durP1;ratioP1;P2;durP2;ratioP2
62110;SDS011;48102;47.526;19.072;2022-08-02T03:42:42;4.82;;;1.45;;
62110;SDS011;48102;47.526;19.072;2022-08-02T03:45:46;1.87;;;1.50;;
62110;SDS011;48102;47.526;19.072;2022-08-02T03:48:50;1.62;;;1.52;;
62110;SDS011;48102;47.526;19.072;2022-08-02T03:51:54;2.28;;;1.83;;
62110;SDS011;48102;47.526;19.072;2022-08-02T03:54:57;2.37;;;1.50;;
62110;SDS011;48102;47.526;19.072;2022-08-02T04:01:05;1.65;;;1.33;;
62110;SDS011;48102;47.526;19.072;2022-08-02T04:04:08;2.17;;;1.67;;
62110;SDS011;48102;47.526;19.072;2022-08-02T04:07:11;1.58;;;1.45;;
62110;SDS011;48102;47.526;19.072;2022-08-02T04:10:14;1.60;;;1.45;;
62110;SDS011;48102;47.526;19.072;2022-08-02T04:13:16;1.58;;;1.48;;
62110;SDS011;48102;47.526;19.072;2022-08-02T04:16:24;1.58;;;1.40;;
62110;SDS011;48102;47.526;19.072;2022-08-02T04:19:50;6.95;;;1.92;;
62110;SDS011;48102;47.526;19.072;2022-08-02T04:23:00;6.15;;;2.03;;
62110;SDS011;48102;47.526;19.072;2022-08-02T04:26:07;1.70;;;1.60;;
62110;SDS011;48102;47.526;19.072;2022-08-02T04:29:12;2.25;;;1.80;;
62110;SDS011;48102;47.526;19.072;2022-08-02T04:32:16;1.85;;;1.75;;
62110;SDS011;48102;47.526;19.072;2022-08-02T04:35:19;1.98;;;1.75;;
62110;SDS011;48102;47.526;19.072;2022-08-02T04:41:41;1.55;;;1.40;;
62110;SDS011;48102;47.526;19.072;2022-08-02T04:44:47;1.37;;;1.23;;
62110;SDS011;48102;47.526;19.072;2022-08-02T04:47:50;2.00;;;1.80;;
62110;SDS011;48102;47.526;19.072;2022-08-02T04:51:05;2.12;;;1.90;;
62110;SDS011;48102;47.526;19.072;2022-08-02T05:00:33;5.47;;;1.67;;
62110;SDS011;48102;47.526;19.072;2022-08-02T05:03:36;2.33;;;1.55;;
62110;SDS011;48102;47.526;19.072;2022-08-02T05:06:39;2.60;;;1.62;;
62110;SDS011;48102;47.526;19.072;2022-08-02T05:09:43;2.03;;;1.50;;
62110;SDS011;48102;47.526;19.072;2022-08-02T05:15:48;2.10;;;1.73;;
62110;SDS011;48102;47.526;19.072;2022-08-02T05:18:54;2.22;;;1.77;;
62110;SDS011;48102;47.526;19.072;2022-08-02T05:21:57;2.10;;;1.40;;
62110;SDS011;48102;47.526;19.072;2022-08-02T05:28:02;2.20;;;1.62;;
62110;SDS011;48102;47.526;19.072;2022-08-02T05:31:11;2.00;;;1.70;;
62110;SDS011;48102;47.526;19.072;2022-08-02T05:34:14;1.85;;;1.40;;
62110;SDS011;48102;47.526;19.072;2022-08-02T05:37:17;1.62;;;1.52;;
62110;SDS011;48102;47.526;19.072;2022-08-02T05:40:22;1.52;;;1.42;;
62110;SDS011;48102;47.526;19.072;2022-08-02T05:43:30;1.60;;;1.50;;
62110;SDS011;48102;47.526;19.072;2022-08-02T05:46:32;2.12;;;1.60;;
62110;SDS011;48102;47.526;19.072;2022-08-02T05:52:45;1.30;;;1.20;;
62110;SDS011;48102;47.526;19.072;2022-08-02T05:55:56;4.22;;;1.73;;
62110;SDS011;48102;47.526;19.072;2022-08-02T06:02:28;1.90;;;1.20;;
62110;SDS011;48102;47.526;19.072;2022-08-02T06:05:42;2.83;;;1.55;;
62110;SDS011;48102;47.526;19.072;2022-08-02T06:08:54;2.05;;;1.35;;
62110;SDS011;48102;47.526;19.072;2022-08-02T06:12:01;2.92;;;1.85;;
62110;SDS011;48102;47.526;19.072;2022-08-02T06:15:05;2.03;;;1.73;;
62110;SDS011;48102;47.526;19.072;2022-08-02T06:18:08;3.92;;;1.52;;
62110;SDS011;48102;47.526;19.072;2022-08-02T06:21:11;1.25;;;1.15;;
62110;SDS011;48102;47.526;19.072;2022-08-02T06:24:36;1.98;;;1.35;;
62110;SDS011;48102;47.526;19.072;2022-08-02T06:27:39;1.58;;;1.30;;
62110;SDS011;48102;47.526;19.072;2022-08-02T06:30:43;2.17;;;1.33;;
62110;SDS011;48102;47.526;19.072;2022-08-02T06:33:46;1.33;;;1.10;;
62110;SDS011;48102;47.526;19.072;2022-08-02T06:37:01;2.83;;;1.30;;
62110;SDS011;48102;47.526;19.072;2022-08-02T06:43:53;1.42;;;1.20;;
62110;SDS011;48102;47.526;19.072;2022-08-02T06:47:21;1.52;;;1.10;;
62110;SDS011;48102;47.526;19.072;2022-08-02T06:50:26;1.35;;;1.08;;
62110;SDS011;48102;47.526;19.072;2022-08-02T06:53:29;1.27;;;1.17;;
62110;SDS011;48102;47.526;19.072;2022-08-02T06:56:32;1.17;;;1.08;;
62110;SDS011;48102;47.526;19.072;2022-08-02T06:59:36;1.10;;;1.00;;
62110;SDS011;48102;47.526;19.072;2022-08-02T07:02:38;1.83;;;1.33;;
62110;SDS011;48102;47.526;19.072;2022-08-02T07:05:41;4.55;;;1.23;;
62110;SDS011;48102;47.526;19.072;2022-08-02T07:08:49;1.33;;;1.05;;
62110;SDS011;48102;47.526;19.072;2022-08-02T07:12:12;1.55;;;1.40;;
62110;SDS011;48102;47.526;19.072;2022-08-02T07:15:16;2.25;;;1.50;;
62110;SDS011;48102;47.526;19.072;2022-08-02T07:21:21;1.83;;;1.25;;
62110;SDS011;48102;47.526;19.072;2022-08-02T07:24:44;1.90;;;1.30;;
62110;SDS011;48102;47.526;19.072;2022-08-02T07:27:47;2.65;;;1.30;;
62110;SDS011;48102;47.526;19.072;2022-08-02T07:33:53;2.62;;;1.20;;
62110;SDS011;48102;47.526;19.072;2022-08-02T07:36:55;1.55;;;1.20;;
62110;SDS011;48102;47.526;19.072;2022-08-02T07:40:02;3.17;;;1.70;;
62110;SDS011;48102;47.526;19.072;2022-08-02T07:43:13;1.25;;;1.15;;
62110;SDS011;48102;47.526;19.072;2022-08-02T07:46:17;2.37;;;1.50;;
62110;SDS011;48102;47.526;19.072;2022-08-02T07:49:20;1.45;;;1.35;;
62110;SDS011;48102;47.526;19.072;2022-08-02T07:52:24;1.80;;;1.35;;
62110;SDS011;48102;47.526;19.072;2022-08-02T07:55:26;5.78;;;1.58;;
62110;SDS011;48102;47.526;19.072;2022-08-02T07:58:42;1.37;;;1.25;;
62110;SDS011;48102;47.526;19.072;2022-08-02T08:01:45;2.03;;;1.67;;
62110;SDS011;48102;47.526;19.072;2022-08-02T08:04:48;1.58;;;1.20;;
62110;SDS011;48102;47.526;19.072;2022-08-02T08:07:51;2.30;;;1.70;;
62110;SDS011;48102;47.526;19.072;2022-08-02T08:10:54;2.12;;;1.65;;
62110;SDS011;48102;47.526;19.072;2022-08-02T08:17:00;1.98;;;1.50;;
62110;SDS011;48102;47.526;19.072;2022-08-02T08:20:02;2.10;;;1.27;;
62110;SDS011;48102;47.526;19.072;2022-08-02T08:23:06;2.10;;;1.42;;
62110;SDS011;48102;47.526;19.072;2022-08-02T08:26:09;1.35;;;1.25;;
62110;SDS011;48102;47.526;19.072;2022-08-02T08:29:17;2.30;;;1.20;;
62110;SDS011;48102;47.526;19.072;2022-08-02T08:32:20;2.47;;;1.37;;
62110;SDS011;48102;47.526;19.072;2022-08-02T08:35:23;1.30;;;1.20;;
62110;SDS011;48102;47.526;19.072;2022-08-02T08:38:26;1.48;;;1.35;;
62110;SDS011;48102;47.526;19.072;2022-08-02T08:41:30;2.05;;;1.20;;
62110;SDS011;48102;47.526;19.072;2022-08-02T08:44:33;2.22;;;1.10;;
62110;SDS011;48102;47.526;19.072;2022-08-02T08:47:39;2.97;;;1.25;;
62110;SDS011;48102;47.526;19.072;2022-08-02T08:50:46;2.28;;;1.27;;
62110;SDS011;48102;47.526;19.072;2022-08-02T08:53:53;1.45;;;1.15;;
62110;SDS011;48102;47.526;19.072;2022-08-02T08:56:58;1.12;;;1.02;;
62110;SDS011;48102;47.526;19.072;2022-08-02T09:00:02;1.75;;;1.17;;
62110;SDS011;48102;47.526;19.072;2022-08-02T09:03:07;1.20;;;1.10;;
62110;SDS011;48102;47.526;19.072;2022-08-02T09:06:10;1.10;;;1.00;;
62110;SDS011;48102;47.526;19.072;2022-08-02T09:09:13;1.00;;;0.90;;
62110;SDS011;48102;47.526;19.072;2022-08-02T09:12:16;1.23;;;1.05;;
62110;SDS011;48102;47.526;19.072;2022-08-02T09:15:23;1.17;;;1.02;;
62110;SDS011;48102;47.526;19.072;2022-08-02T09:18:35;1.12;;;0.90;;
62110;SDS011;48102;47.526;19.072;2022-08-02T09:21:40;1.17;;;0.90;;
62110;SDS011;48102;47.526;19.072;2022-08-02T09:24:44;1.17;;;1.08;;
62110;SDS011;48102;47.526;19.072;2022-08-02T09:27:49;1.48;;;1.20;;
62110;SDS011;48102;47.526;19.072;2022-08-02T09:31:07;0.95;;;0.85;;
62110;SDS011;48102;47.526;19.072;2022-08-02T09:34:11;0.93;;;0.85;;
62110;SDS011;48102;47.526;19.072;2022-08-02T09:37:22;2.28;;;1.30;;
62110;SDS011;48102;47.526;19.072;2022-08-02T09:40:34;1.20;;;1.00;;
62110;SDS011;48102;47.526;19.072;2022-08-02T09:43:44;3.78;;;1.70;;
62110;SDS011;48102;47.526;19.072;2022-08-02T09:50:21;1.85;;;1.00;;
62110;SDS011;48102;47.526;19.072;2022-08-02T09:53:24;2.35;;;1.05;;
62110;SDS011;48102;47.526;19.072;2022-08-02T09:56:28;1.85;;;1.00;;
62110;SDS011;48102;47.526;19.072;2022-08-02T09:59:41;2.22;;;1.40;;
62110;SDS011;48102;47.526;19.072;2022-08-02T10:03:08;1.65;;;1.55;;
62110;SDS011;48102;47.526;19.072;2022-08-02T10:06:41;1.00;;;0.90;;
62110;SDS011;48102;47.526;19.072;2022-08-02T10:09:50;2.50;;;1.35;;
62110;SDS011;48102;47.526;19.072;2022-08-02T10:12:54;3.37;;;0.80;;
62110;SDS011;48102;47.526;19.072;2022-08-02T10:15:57;1.77;;;1.05;;
62110;SDS011;48102;47.526;19.072;2022-08-02T10:19:00;1.15;;;0.98;;
62110;SDS011;48102;47.526;19.072;2022-08-02T10:22:09;0.82;;;0.80;;
62110;SDS011;48102;47.526;19.072;2022-08-02T10:25:14;0.95;;;0.85;;
62110;SDS011;48102;47.526;19.072;2022-08-02T10:28:19;0.95;;;0.85;;
62110;SDS011;48102;47.526;19.072;2022-08-02T10:31:30;2.17;;;1.05;;
62110;SDS011;48102;47.526;19.072;2022-08-02T10:34:54;0.88;;;0.80;;
62110;SDS011;48102;47.526;19.072;2022-08-02T10:38:21;1.48;;;1.08;;
62110;SDS011;48102;47.526;19.072;2022-08-02T10:45:06;1.42;;;1.10;;
62110;SDS011;48102;47.526;19.072;2022-08-02T10:48:11;1.83;;;1.08;;
62110;SDS011;48102;47.526;19.072;2022-08-02T10:51:17;0.75;;;0.75;;
62110;SDS011;48102;47.526;19.072;2022-08-02T10:54:33;1.00;;;0.80;;
62110;SDS011;48102;47.526;19.072;2022-08-02T10:57:41;1.05;;;0.80;;
62110;SDS011;48102;47.526;19.072;2022-08-02T11:00:52;1.48;;;1.17;;
62110;SDS011;48102;47.526;19.072;2022-08-02T11:03:59;1.15;;;0.85;;
62110;SDS011;48102;47.526;19.072;2022-08-02T11:07:10;1.40;;;0.90;;
62110;SDS011;48102;47.526;19.072;2022-08-02T11:13:27;0.82;;;0.82;;
62110;SDS011;48102;47.526;19.072;2022-08-02T11:23:33;3.12;;;0.80;;
62110;SDS011;48102;47.526;19.072;2022-08-02T11:29:49;0.57;;;0.55;;
62110;SDS011;48102;47.526;19.072;2022-08-02T11:32:56;0.98;;;0.77;;
62110;SDS011;48102;47.526;19.072;2022-08-02T11:36:00;1.20;;;0.98;;
62110;SDS011;48102;47.526;19.072;2022-08-02T11:39:08;0.50;;;0.50;;
62110;SDS011;48102;47.526;19.072;2022-08-02T11:42:17;3.40;;;0.70;;
62110;SDS011;48102;47.526;19.072;2022-08-02T11:45:23;0.85;;;0.65;;
62110;SDS011;48102;47.526;19.072;2022-08-02T11:48:35;1.02;;;0.80;;
62110;SDS011;48102;47.526;19.072;2022-08-02T11:51:49;1.35;;;0.93;;
62110;SDS011;48102;47.526;19.072;2022-08-02T11:55:26;1.20;;;0.95;;
62110;SDS011;48102;47.526;19.072;2022-08-02T12:02:21;1.85;;;0.68;;
62110;SDS011;48102;47.526;19.072;2022-08-02T12:05:27;1.30;;;0.80;;
62110;SDS011;48102;47.526;19.072;2022-08-02T12:08:50;0.65;;;0.65;;
62110;SDS011;48102;47.526;19.072;2022-08-02T12:11:56;0.70;;;0.62;;
62110;SDS011;48102;47.526;19.072;2022-08-02T12:14:59;1.42;;;0.90;;
62110;SDS011;48102;47.526;19.072;2022-08-02T12:18:06;0.70;;;0.70;;
62110;SDS011;48102;47.526;19.072;2022-08-02T12:21:29;1.08;;;0.62;;
62110;SDS011;48102;47.526;19.072;2022-08-02T12:24:32;0.70;;;0.70;;
62110;SDS011;48102;47.526;19.072;2022-08-02T12:27:36;1.52;;;0.70;;
62110;SDS011;48102;47.526;19.072;2022-08-02T12:30:52;0.98;;;0.80;;
62110;SDS011;48102;47.526;19.072;2022-08-02T12:33:55;0.98;;;0.68;;
62110;SDS011;48102;47.526;19.072;2022-08-02T12:37:05;0.70;;;0.60;;
62110;SDS011;48102;47.526;19.072;2022-08-02T12:40:28;0.75;;;0.75;;
62110;SDS011;48102;47.526;19.072;2022-08-02T12:43:34;0.60;;;0.60;;
62110;SDS011;48102;47.526;19.072;2022-08-02T12:46:44;0.70;;;0.70;;
62110;SDS011;48102;47.526;19.072;2022-08-02T12:53:15;0.60;;;0.60;;
62110;SDS011;48102;47.526;19.072;2022-08-02T12:56:53;1.48;;;0.70;;
62110;SDS011;48102;47.526;19.072;2022-08-02T12:59:49;0.80;;;0.52;;
62110;SDS011;48102;47.526;19.072;2022-08-02T13:02:53;1.23;;;0.60;;
62110;SDS011;48102;47.526;19.072;2022-08-02T13:05:57;0.60;;;0.60;;
62110;SDS011;48102;47.526;19.072;2022-08-02T13:09:18;0.75;;;0.50;;
62110;SDS011;48102;47.526;19.072;2022-08-02T13:12:21;0.70;;;0.70;;
62110;SDS011;48102;47.526;19.072;2022-08-02T13:15:24;0.55;;;0.55;;
62110;SDS011;48102;47.526;19.072;2022-08-02T13:18:47;0.55;;;0.50;;
62110;SDS011;48102;47.526;19.072;2022-08-02T13:21:51;0.85;;;0.60;;
62110;SDS011;48102;47.526;19.072;2022-08-02T13:25:04;0.75;;;0.60;;
62110;SDS011;48102;47.526;19.072;2022-08-02T13:28:08;0.62;;;0.62;;
62110;SDS011;48102;47.526;19.072;2022-08-02T13:31:11;0.70;;;0.50;;
62110;SDS011;48102;47.526;19.072;2022-08-02T13:34:34;1.58;;;0.70;;
62110;SDS011;48102;47.526;19.072;2022-08-02T13:37:37;0.60;;;0.60;;
62110;SDS011;48102;47.526;19.072;2022-08-02T13:40:42;0.68;;;0.68;;
62110;SDS011;48102;47.526;19.072;2022-08-02T13:44:06;0.50;;;0.50;;
62110;SDS011;48102;47.526;19.072;2022-08-02T13:47:12;1.40;;;0.47;;
62110;SDS011;48102;47.526;19.072;2022-08-02T13:50:15;0.77;;;0.77;;
62110;SDS011;48102;47.526;19.072;2022-08-02T13:53:18;0.52;;;0.50;;
62110;SDS011;48102;47.526;19.072;2022-08-02T13:56:21;0.88;;;0.68;;
62110;SDS011;48102;47.526;19.072;2022-08-02T13:59:37;0.60;;;0.60;;
62110;SDS011;48102;47.526;19.072;2022-08-02T14:02:59;0.60;;;0.60;;
62110;SDS011;48102;47.526;19.072;2022-08-02T14:06:03;0.60;;;0.60;;
62110;SDS011;48102;47.526;19.072;2022-08-02T14:09:07;0.57;;;0.57;;
62110;SDS011;48102;47.526;19.072;2022-08-02T14:15:19;0.82;;;0.82;;
62110;SDS011;48102;47.526;19.072;2022-08-02T14:18:22;0.95;;;0.70;;
62110;SDS011;48102;47.526;19.072;2022-08-02T14:21:25;0.80;;;0.80;;
62110;SDS011;48102;47.526;19.072;2022-08-02T14:24:28;0.90;;;0.90;;
62110;SDS011;48102;47.526;19.072;2022-08-02T14:27:32;1.12;;;1.02;;
62110;SDS011;48102;47.526;19.072;2022-08-02T14:30:44;1.10;;;1.10;;
62110;SDS011;48102;47.526;19.072;2022-08-02T14:33:46;1.08;;;1.08;;
62110;SDS011;48102;47.526;19.072;2022-08-02T14:36:49;1.20;;;1.10;;
62110;SDS011;48102;47.526;19.072;2022-08-02T14:39:55;1.30;;;1.20;;
62110;SDS011;48102;47.526;19.072;2022-08-02T14:43:03;1.10;;;1.10;;
62110;SDS011;48102;47.526;19.072;2022-08-02T14:46:06;1.30;;;1.20;;
62110;SDS011;48102;47.526;19.072;2022-08-02T14:49:09;1.33;;;1.17;;
62110;SDS011;48102;47.526;19.072;2022-08-02T14:52:15;1.10;;;1.10;;
62110;SDS011;48102;47.526;19.072;2022-08-02T14:55:18;1.30;;;1.30;;
62110;SDS011;48102;47.526;19.072;2022-08-02T14:58:22;1.35;;;1.27;;
62110;SDS011;48102;47.526;19.072;2022-08-02T15:01:25;1.30;;;1.30;;
62110;SDS011;48102;47.526;19.072;2022-08-02T15:04:28;1.40;;;1.40;;
62110;SDS011;48102;47.526;19.072;2022-08-02T15:07:44;1.50;;;1.50;;
62110;SDS011;48102;47.526;19.072;2022-08-02T15:10:51;1.30;;;1.30;;
62110;SDS011;48102;47.526;19.072;2022-08-02T15:13:54;1.50;;;1.40;;
62110;SDS011;48102;47.526;19.072;2022-08-02T15:17:00;3.75;;;1.40;;
62110;SDS011;48102;47.526;19.072;2022-08-02T15:20:04;1.23;;;1.23;;
62110;SDS011;48102;47.526;19.072;2022-08-02T15:23:27;1.20;;;1.20;;
